createdAt,value
2023-03-11T00:02:53.541Z,11.94
2023-03-11T00:05:56.592Z,11.87
2023-03-11T00:08:58.709Z,11.89
2023-03-11T00:12:01.558Z,11.77
2023-03-11T00:15:04.027Z,11.71
2023-03-11T00:18:06.912Z,11.66
2023-03-11T00:21:16.167Z,11.60
2023-03-11T00:24:18.425Z,11.64
2023-03-11T00:27:20.579Z,11.63
2023-03-11T00:30:24.068Z,11.68
2023-03-11T00:33:26.391Z,11.67
2023-03-11T00:36:33.992Z,11.71
2023-03-11T00:39:36.275Z,11.68
2023-03-11T00:42:38.518Z,11.68
2023-03-11T00:45:40.962Z,11.75
2023-03-11T00:48:43.247Z,11.75
2023-03-11T00:51:45.714Z,11.79
2023-03-11T00:54:47.942Z,11.70
2023-03-11T00:57:55.578Z,11.62
2023-03-11T01:00:59.692Z,11.64
2023-03-11T01:04:02.211Z,11.58
2023-03-11T01:07:04.493Z,11.51
2023-03-11T01:10:07.891Z,11.63
2023-03-11T01:13:10.131Z,11.63
2023-03-11T01:16:12.596Z,11.54
2023-03-11T01:19:15.161Z,11.54
2023-03-11T01:22:17.687Z,11.40
2023-03-11T01:25:21.566Z,11.39
2023-03-11T01:28:24.656Z,11.32
2023-03-11T01:31:26.803Z,11.36
2023-03-11T01:34:29.170Z,11.25
2023-03-11T01:37:31.530Z,11.19
2023-03-11T01:40:36.960Z,11.25
2023-03-11T01:43:45.470Z,11.30
2023-03-11T01:46:54.174Z,11.29
2023-03-11T01:50:05.882Z,11.25
2023-03-11T01:53:08.724Z,11.21
2023-03-11T01:56:11.204Z,11.20
2023-03-11T01:59:16.667Z,11.20
2023-03-11T02:02:23.605Z,11.16
2023-03-11T02:05:26.225Z,11.12
2023-03-11T02:08:30.156Z,11.14
2023-03-11T02:11:33.309Z,11.13
2023-03-11T02:14:36.458Z,11.17
2023-03-11T02:21:21.504Z,11.16
2023-03-11T02:24:29.733Z,11.19
2023-03-11T02:27:33.963Z,11.14
2023-03-11T02:30:42.728Z,11.11
2023-03-11T02:33:46.759Z,11.10
2023-03-11T02:36:49.732Z,11.14
2023-03-11T02:39:54.210Z,11.12
2023-03-11T02:42:58.926Z,11.06
2023-03-11T02:46:01.783Z,11.12
2023-03-11T02:49:05.178Z,11.09
2023-03-11T02:52:09.813Z,11.19
2023-03-11T02:55:12.386Z,11.18
2023-03-11T02:58:15.658Z,11.17
2023-03-11T03:01:18.317Z,11.20
2023-03-11T03:04:21.829Z,11.09
2023-03-11T03:07:24.248Z,11.17
2023-03-11T03:10:26.787Z,11.15
2023-03-11T03:13:29.657Z,11.24
2023-03-11T03:16:32.156Z,11.27
2023-03-11T03:19:34.564Z,11.26
2023-03-11T03:22:37.960Z,11.20
2023-03-11T03:25:44.437Z,11.11
2023-03-11T03:28:47.029Z,11.04
2023-03-11T03:31:49.438Z,11.03
2023-03-11T03:34:58.260Z,11.10
2023-03-11T03:38:09.933Z,11.13
2023-03-11T03:41:15.675Z,11.00
2023-03-11T03:44:18.350Z,10.85
2023-03-11T03:47:21.484Z,10.88
2023-03-11T03:50:24.145Z,10.90
2023-03-11T03:53:28.552Z,10.83
2023-03-11T03:56:30.860Z,10.81
2023-03-11T03:59:33.180Z,10.81
2023-03-11T04:02:38.052Z,10.77
2023-03-11T04:05:40.754Z,10.80
2023-03-11T04:08:43.269Z,10.78
2023-03-11T04:11:47.032Z,10.67
2023-03-11T04:14:51.131Z,10.69
2023-03-11T04:17:53.436Z,10.70
2023-03-11T04:20:55.887Z,10.69
2023-03-11T04:23:58.486Z,10.71
2023-03-11T04:27:05.674Z,10.53
2023-03-11T04:30:10.368Z,10.53
2023-03-11T04:33:12.741Z,10.53
2023-03-11T04:36:15.238Z,10.59
2023-03-11T04:39:18.157Z,10.45
2023-03-11T04:42:21.820Z,10.42
2023-03-11T04:45:24.746Z,10.42
2023-03-11T04:48:30.355Z,10.26
2023-03-11T04:51:32.675Z,10.04
2023-03-11T04:54:34.998Z,9.99
2023-03-11T04:57:37.390Z,9.93
2023-03-11T05:00:39.959Z,9.94
2023-03-11T05:03:46.415Z,9.98
2023-03-11T05:06:51.242Z,9.80
2023-03-11T05:09:54.253Z,9.65
2023-03-11T05:12:56.532Z,9.58
2023-03-11T05:16:02.641Z,9.57
2023-03-11T05:19:25.219Z,9.65
2023-03-11T05:22:27.765Z,9.54
2023-03-11T05:25:31.138Z,9.52
2023-03-11T05:28:33.864Z,9.49
2023-03-11T05:31:37.010Z,9.46
2023-03-11T05:34:39.646Z,9.43
2023-03-11T05:37:42.800Z,9.48
2023-03-11T05:40:45.417Z,9.49
2023-03-11T05:43:47.801Z,9.51
2023-03-11T05:46:50.348Z,9.42
2023-03-11T05:49:52.817Z,9.44
2023-03-11T05:52:55.942Z,9.28
2023-03-11T05:55:59.185Z,9.28
2023-03-11T05:59:03.068Z,9.20
2023-03-11T06:02:08.782Z,9.16
2023-03-11T06:05:13.447Z,9.15
2023-03-11T06:08:17.563Z,9.17
2023-03-11T06:11:19.999Z,9.15
2023-03-11T06:14:22.845Z,9.12
2023-03-11T06:17:28.678Z,9.15
2023-03-11T06:20:32.223Z,8.96
2023-03-11T06:23:34.632Z,9.01
2023-03-11T06:26:37.665Z,8.96
2023-03-11T06:29:40.144Z,9.08
2023-03-11T06:32:45.045Z,9.08
2023-03-11T06:35:59.246Z,9.16
2023-03-11T06:39:01.634Z,9.21
2023-03-11T06:42:04.677Z,9.19
2023-03-11T06:45:08.236Z,9.33
2023-03-11T06:48:10.721Z,9.22
2023-03-11T06:51:14.234Z,9.29
2023-03-11T06:54:17.310Z,9.21
2023-03-11T06:57:20.400Z,9.21
2023-03-11T07:00:31.189Z,9.25
2023-03-11T07:03:35.076Z,9.16
2023-03-11T07:06:37.513Z,9.49
2023-03-11T07:09:44.609Z,9.17
2023-03-11T07:12:49.342Z,9.10
2023-03-11T07:16:00.617Z,9.08
2023-03-11T07:19:03.349Z,9.06
2023-03-11T07:22:05.629Z,8.89
2023-03-11T07:25:08.205Z,8.87
2023-03-11T07:28:10.454Z,8.82
2023-03-11T07:31:16.627Z,8.73
2023-03-11T07:34:19.007Z,8.49
2023-03-11T07:37:21.269Z,8.59
2023-03-11T07:40:23.518Z,8.72
2023-03-11T07:43:25.966Z,8.99
2023-03-11T07:46:29.873Z,9.20
2023-03-11T07:49:32.307Z,9.21
2023-03-11T07:52:34.561Z,9.08
2023-03-11T07:55:36.806Z,9.38
2023-03-11T07:58:39.414Z,9.39
2023-03-11T08:01:47.507Z,9.32
2023-03-11T08:04:49.787Z,9.57
2023-03-11T08:07:52.022Z,9.73
2023-03-11T08:10:54.347Z,9.82
2023-03-11T08:13:57.890Z,14.86
2023-03-11T08:17:00.143Z,18.86
2023-03-11T08:20:02.414Z,16.62
2023-03-11T08:23:04.861Z,14.14
2023-03-11T08:26:09.298Z,12.28
2023-03-11T08:29:11.607Z,15.26
2023-03-11T08:32:13.905Z,12.87
2023-03-11T08:35:16.944Z,12.71
2023-03-11T08:38:19.295Z,12.28
2023-03-11T08:41:21.526Z,11.74
2023-03-11T08:44:23.777Z,11.29
2023-03-11T08:47:26.082Z,15.26
2023-03-11T08:50:28.322Z,15.33
2023-03-11T08:53:32.633Z,12.77
2023-03-11T08:56:34.965Z,11.54
2023-03-11T08:59:37.341Z,11.51
2023-03-11T09:02:39.721Z,19.85
2023-03-11T09:05:42.077Z,22.71
2023-03-11T09:08:45.393Z,24.29
2023-03-11T09:11:48.746Z,24.24
2023-03-11T09:14:50.985Z,21.58
2023-03-11T09:17:54.317Z,21.66
2023-03-11T09:20:58.456Z,21.04
2023-03-11T09:24:01.359Z,24.93
2023-03-11T09:27:04.009Z,25.26
2023-03-11T09:30:06.974Z,19.38
2023-03-11T09:33:09.318Z,16.25
2023-03-11T09:36:16.880Z,14.43
2023-03-11T09:39:19.148Z,13.24
2023-03-11T09:42:27.620Z,12.69
2023-03-11T09:45:31.863Z,12.04
2023-03-11T09:48:49.564Z,11.40
2023-03-11T09:52:19.576Z,11.13
2023-03-11T09:55:22.024Z,10.95
2023-03-11T09:58:27.510Z,11.27
2023-03-11T10:01:45.249Z,12.25
2023-03-11T10:04:50.534Z,12.01
2023-03-11T10:07:59.566Z,11.62
2023-03-11T10:11:44.846Z,11.63
2023-03-11T10:14:47.672Z,11.22
2023-03-11T10:18:23.183Z,10.77
2023-03-11T10:21:42.366Z,10.61
2023-03-11T10:25:00.149Z,10.35
2023-03-11T10:28:08.582Z,10.16
2023-03-11T10:31:25.020Z,10.21
2023-03-11T10:35:00.834Z,9.72
2023-03-11T10:38:22.456Z,9.62
2023-03-11T10:41:44.321Z,9.48
2023-03-11T10:44:46.574Z,9.31
2023-03-11T10:47:49.108Z,9.11
2023-03-11T10:51:22.381Z,9.19
2023-03-11T10:54:31.728Z,9.32
2023-03-11T10:57:36.378Z,9.70
2023-03-11T11:00:38.638Z,9.86
2023-03-11T11:03:46.247Z,10.02
2023-03-11T11:06:48.803Z,10.38
2023-03-11T11:10:21.185Z,10.72
2023-03-11T11:13:25.793Z,10.78
2023-03-11T11:16:28.946Z,10.96
2023-03-11T11:19:31.105Z,11.08
2023-03-11T11:22:33.227Z,11.14
2023-03-11T11:26:01.505Z,11.20
2023-03-11T11:29:09.685Z,11.01
2023-03-11T11:32:24.897Z,10.50
2023-03-11T11:35:27.319Z,10.42
2023-03-11T11:38:52.312Z,10.47
2023-03-11T11:41:56.727Z,10.26
2023-03-11T11:45:47.267Z,10.25
2023-03-11T11:49:01.189Z,10.18
2023-03-11T11:52:16.309Z,10.07
2023-03-11T11:55:26.266Z,10.30
2023-03-11T11:58:28.688Z,10.24
2023-03-11T12:01:40.559Z,10.19
2023-03-11T12:04:45.754Z,10.15
2023-03-11T12:08:00.225Z,9.98
2023-03-11T12:11:07.516Z,9.56
2023-03-11T12:14:25.878Z,9.67
2023-03-11T12:17:30.227Z,10.10
2023-03-11T12:20:54.373Z,10.27
2023-03-11T12:24:25.636Z,10.03
2023-03-11T12:27:33.145Z,9.85
2023-03-11T12:30:38.348Z,9.54
2023-03-11T12:33:46.338Z,9.51
2023-03-11T12:36:49.788Z,9.53
2023-03-11T12:39:52.080Z,9.51
2023-03-11T12:42:54.343Z,9.78
2023-03-11T12:45:59.509Z,9.85
2023-03-11T12:49:08.001Z,9.89
2023-03-11T12:52:13.334Z,9.79
2023-03-11T12:55:18.625Z,9.84
2023-03-11T12:58:32.111Z,9.89
2023-03-11T13:02:06.939Z,9.47
2023-03-11T13:05:28.289Z,9.34
2023-03-11T13:08:51.415Z,9.36
2023-03-11T13:11:53.675Z,9.54
2023-03-11T13:15:20.791Z,9.43
2023-03-11T13:18:26.861Z,9.63
2023-03-11T13:21:31.667Z,9.65
2023-03-11T13:24:33.885Z,9.59
2023-03-11T13:27:42.081Z,9.64
2023-03-11T13:31:06.006Z,9.46
2023-03-11T13:34:24.661Z,9.27
2023-03-11T13:37:33.484Z,9.50
2023-03-11T13:40:43.976Z,9.41
2023-03-11T13:43:48.812Z,9.00
2023-03-11T13:46:53.957Z,8.95
2023-03-11T13:50:25.242Z,8.94
2023-03-11T13:53:38.856Z,9.03
2023-03-11T13:56:49.185Z,8.97
2023-03-11T13:59:53.830Z,9.01
2023-03-11T14:03:01.596Z,8.93
2023-03-11T14:06:06.989Z,8.97
2023-03-11T14:09:21.248Z,9.06
2023-03-11T14:12:23.476Z,9.08
2023-03-11T14:15:26.962Z,9.11
2023-03-11T14:18:41.170Z,9.11
2023-03-11T14:21:45.058Z,9.09
2023-03-11T14:24:48.220Z,8.96
2023-03-11T14:27:55.023Z,9.03
2023-03-11T14:30:59.078Z,8.83
2023-03-11T14:34:07.664Z,8.68
2023-03-11T14:37:31.089Z,8.66
2023-03-11T14:40:37.799Z,8.60
2023-03-11T14:43:44.297Z,8.63
2023-03-11T14:46:46.990Z,8.57
2023-03-11T14:49:50.079Z,8.43
2023-03-11T14:52:59.548Z,8.47
2023-03-11T14:56:05.725Z,8.47
2023-03-11T14:59:12.543Z,8.53
2023-03-11T15:02:38.025Z,8.54
2023-03-11T15:05:44.209Z,8.54
2023-03-11T15:08:57.240Z,8.54
2023-03-11T15:12:01.969Z,8.53
2023-03-11T15:15:21.727Z,8.44
2023-03-11T15:18:26.619Z,8.37
2023-03-11T15:21:32.386Z,8.49
2023-03-11T15:24:34.826Z,8.33
2023-03-11T15:27:41.716Z,8.35
2023-03-11T15:30:43.989Z,8.31
2023-03-11T15:33:46.412Z,8.24
2023-03-11T15:36:48.641Z,8.31
2023-03-11T15:39:52.279Z,8.30
2023-03-11T15:43:20.757Z,8.27
2023-03-11T15:46:23.034Z,8.23
2023-03-11T15:49:25.618Z,8.14
2023-03-11T15:52:27.932Z,8.12
2023-03-11T15:55:30.190Z,8.03
2023-03-11T15:58:32.400Z,7.90
2023-03-11T16:01:35.079Z,7.86
2023-03-11T16:04:37.536Z,7.75
2023-03-11T16:07:40.275Z,7.78
2023-03-11T16:10:43.267Z,7.73
2023-03-11T16:13:45.586Z,7.74
2023-03-11T16:16:47.988Z,7.70
2023-03-11T16:19:50.250Z,7.68
2023-03-11T16:22:55.873Z,7.52
2023-03-11T16:26:00.345Z,7.50
2023-03-11T16:29:16.528Z,7.43
2023-03-11T16:32:20.951Z,7.44
2023-03-11T16:35:24.036Z,7.50
2023-03-11T16:38:26.446Z,7.51
2023-03-11T16:41:28.769Z,7.41
2023-03-11T16:44:31.014Z,7.36
2023-03-11T16:47:33.322Z,7.25
2023-03-11T16:50:37.407Z,7.24
2023-03-11T16:53:40.142Z,7.23
2023-03-11T16:56:42.441Z,7.17
2023-03-11T16:59:44.888Z,7.24
2023-03-11T17:02:47.115Z,7.15
2023-03-11T17:05:49.734Z,7.13
2023-03-11T17:08:52.052Z,7.00
2023-03-11T17:11:54.290Z,7.02
2023-03-11T17:14:56.722Z,6.89
2023-03-11T17:17:59.094Z,7.09
2023-03-11T17:21:05.905Z,7.06
2023-03-11T17:24:09.485Z,6.99
2023-03-11T17:27:11.812Z,7.07
2023-03-11T17:30:19.371Z,7.07
2023-03-11T17:33:27.123Z,6.97
2023-03-11T17:36:29.402Z,6.96
2023-03-11T17:39:31.656Z,6.92
2023-03-11T17:42:33.972Z,6.76
2023-03-11T17:45:38.625Z,6.84
2023-03-11T17:48:42.246Z,6.83
2023-03-11T17:51:44.534Z,6.75
2023-03-11T17:54:46.911Z,6.65
2023-03-11T17:57:49.152Z,6.73
2023-03-11T18:00:51.425Z,6.70
2023-03-11T18:03:54.226Z,6.76
2023-03-11T18:06:56.837Z,6.73
2023-03-11T18:09:59.111Z,6.72
2023-03-11T18:13:01.496Z,6.75
2023-03-11T18:16:04.943Z,6.82
2023-03-11T18:19:07.245Z,6.83
2023-03-11T18:22:09.545Z,6.80
2023-03-11T18:25:12.825Z,6.71
2023-03-11T18:28:15.047Z,6.80
2023-03-11T18:31:19.835Z,6.75
2023-03-11T18:34:23.255Z,6.54
2023-03-11T18:37:25.487Z,6.50
2023-03-11T18:40:28.024Z,6.47
2023-03-11T18:43:30.287Z,6.55
2023-03-11T18:46:33.153Z,6.58
2023-03-11T18:49:35.424Z,6.60
2023-03-11T18:52:37.780Z,6.56
2023-03-11T18:55:40.060Z,6.55
2023-03-11T18:58:42.549Z,6.41
2023-03-11T19:01:44.938Z,6.29
2023-03-11T19:04:47.429Z,6.39
2023-03-11T19:07:49.728Z,6.52
2023-03-11T19:10:52.177Z,6.36
2023-03-11T19:13:55.231Z,6.33
2023-03-11T19:16:57.519Z,6.29
2023-03-11T19:19:59.773Z,6.28
2023-03-11T19:23:02.186Z,6.20
2023-03-11T19:26:04.743Z,6.19
2023-03-11T19:29:08.012Z,6.23
2023-03-11T19:32:10.635Z,6.23
2023-03-11T19:35:17.402Z,6.11
2023-03-11T19:38:20.781Z,6.10
2023-03-11T19:41:23.292Z,6.07
2023-03-11T19:44:25.641Z,6.10
2023-03-11T19:47:28.178Z,6.11
2023-03-11T19:50:30.415Z,6.15
2023-03-11T19:53:33.672Z,6.17
2023-03-11T19:56:35.984Z,5.90
2023-03-11T19:59:38.268Z,5.99
2023-03-11T20:02:40.607Z,5.95
2023-03-11T20:05:45.395Z,5.89
2023-03-11T20:08:47.649Z,5.88
2023-03-11T20:11:50.041Z,5.82
2023-03-11T20:14:52.336Z,5.75
2023-03-11T20:17:54.755Z,5.76
2023-03-11T20:20:57.075Z,5.76
2023-03-11T20:24:00.166Z,5.76
2023-03-11T20:27:02.535Z,5.66
2023-03-11T20:30:05.376Z,5.66
2023-03-11T20:33:08.163Z,5.57
2023-03-11T20:36:14.055Z,5.56
2023-03-11T20:39:16.785Z,5.52
2023-03-11T20:42:19.185Z,5.42
2023-03-11T20:45:22.046Z,5.34
2023-03-11T20:48:24.650Z,5.42
2023-03-11T20:51:26.992Z,5.42
2023-03-11T20:54:29.421Z,5.45
2023-03-11T20:57:31.668Z,5.29
2023-03-11T21:00:34.676Z,5.28
2023-03-11T21:03:37.132Z,5.23
2023-03-11T21:06:41.142Z,5.24
2023-03-11T21:09:43.504Z,5.21
2023-03-11T21:12:45.868Z,5.25
2023-03-11T21:15:48.284Z,5.25
2023-03-11T21:18:50.622Z,5.18
2023-03-11T21:21:53.102Z,5.25
2023-03-11T21:24:55.845Z,5.20
2023-03-11T21:27:58.116Z,5.00
2023-03-11T21:31:03.417Z,5.09
2023-03-11T21:34:05.971Z,5.02
2023-03-11T21:37:08.262Z,5.02
2023-03-11T21:40:11.351Z,5.07
2023-03-11T21:43:13.730Z,4.91
2023-03-11T21:46:18.516Z,4.87
2023-03-11T21:49:21.074Z,4.91
2023-03-11T21:52:23.454Z,4.87
2023-03-11T21:55:25.749Z,4.79
2023-03-11T21:58:28.114Z,4.85
2023-03-11T22:01:30.727Z,4.80
2023-03-11T22:04:33.316Z,4.86
2023-03-11T22:07:35.567Z,4.91
2023-03-11T22:10:38.765Z,4.97
2023-03-11T22:13:41.304Z,5.00
2023-03-11T22:16:43.667Z,5.02
2023-03-11T22:19:46.050Z,5.01
2023-03-11T22:22:48.677Z,5.04
2023-03-11T22:25:50.964Z,5.04
2023-03-11T22:28:53.241Z,5.04
2023-03-11T22:31:55.511Z,4.98
2023-03-11T22:34:57.966Z,4.96
2023-03-11T22:38:00.310Z,4.87
2023-03-11T22:41:07.566Z,4.85
2023-03-11T22:44:09.862Z,4.81
2023-03-11T22:47:12.388Z,4.77
2023-03-11T22:50:14.705Z,4.81
2023-03-11T22:53:17.435Z,4.78
2023-03-11T22:56:20.028Z,4.82
2023-03-11T22:59:22.346Z,4.78
2023-03-11T23:02:24.671Z,4.71
2023-03-11T23:05:27.033Z,4.68
2023-03-11T23:08:29.399Z,4.75
2023-03-11T23:11:31.695Z,4.73
2023-03-11T23:14:44.682Z,4.68
2023-03-11T23:17:47.644Z,4.54
2023-03-11T23:20:49.955Z,4.50
2023-03-11T23:23:52.702Z,4.42
2023-03-11T23:26:54.903Z,4.46
2023-03-11T23:29:57.162Z,4.41
2023-03-11T23:33:02.812Z,4.49
2023-03-11T23:36:07.867Z,4.56
2023-03-11T23:39:10.226Z,4.49
2023-03-11T23:42:25.108Z,4.47
2023-03-11T23:45:28.252Z,4.50
2023-03-11T23:48:30.782Z,4.52
2023-03-11T23:51:33.050Z,4.46
2023-03-11T23:54:35.705Z,4.45
2023-03-11T23:57:38.057Z,4.39
